NCAR-RAP Real-Time Weather Data

Output produced by METARs form (26 May 2022  08:53 UTC)
found at http://weather.rap.ucar.edu/surface/
 
KPKB 260753Z AUTO 17007KT 10SM CLR 19/14 A3007 RMK AO2 SLP177 T01890139
KPKB 260653Z AUTO 17009KT 10SM CLR 19/14 A3008 RMK AO2 SLP179 T01890139
KPKB 260553Z AUTO 17008KT 10SM CLR 19/14 A3009 RMK AO2 SLP182 T01890139 10256 20189 56001
KPKB 260453Z AUTO 15006KT 10SM CLR 19/14 A3009 RMK AO2 SLP184 T01890139 402780139
KPKB 260353Z AUTO 15007KT 10SM CLR 19/14 A3008 RMK AO2 SLP182 T01940139
KPKB 260253Z 14007G15KT 10SM CLR 20/14 A3009 RMK AO2 SLP183 T02000139 51006
KPKB 260153Z 15009G16KT 10SM CLR 21/14 A3009 RMK AO2 SLP183 T02110139
KPKB 260053Z 16009KT 10SM CLR 23/14 A3008 RMK AO2 SLP179 T02280144
KPKB 252353Z 16010KT 10SM CLR 26/17 A3007 RMK AO2 SLP176 T02560172 10278 20233 55007
KPKB 252253Z 13007KT 10SM CLR 27/18 A3005 RMK AO2 SLP170 T02720183
KPKB 252153Z 15009KT 10SM CLR 28/18 A3007 RMK AO2 SLP178 T02780178
KPKB 252053Z COR VRB06KT 10SM FEW040 27/17 A3009 RMK AO2 SLP183 T02720172 56019
KPKB 251953Z VRB06KT 10SM CLR 26/17 A3010 RMK AO2 SLP189 T02610172
KPKB 251853Z VRB05KT 10SM CLR 25/17 A3013 RMK AO2 SLP197 T02500167
KPKB 251753Z VRB04KT 10SM CLR 23/16 A3015 RMK AO2 SLP204 T02330161 10233 20167 58014
KPKB 251653Z 12006KT 10SM BKN100 21/15 A3018 RMK AO2 SLP216 T02110150
KPKB 251553Z 10005KT 10SM FEW110 21/14 A3019 RMK AO2 SLP220 T02110144
KPKB 251453Z 12005KT 10SM OVC110 20/14 A3019 RMK AO2 SLP219 T02000139 56002
KPKB 251353Z 11007KT 10SM CLR 20/14 A3019 RMK AO2 SLP218 T02000139
KPKB 251253Z 10004KT 10SM CLR 18/14 A3019 RMK AO2 SLP218 T01780139
KPKB 251153Z 11003KT 10SM CLR 17/14 A3019 RMK AO2 SLP220 T01670139 10167 20139 53007
KPKB 251053Z 09003KT 8SM FEW003 15/14 A3019 RMK AO2 SLP219 T01500144
KPKB 251031Z AUTO 11003KT 7SM SCT002 15/14 A3018 RMK AO2 T01500139
KPKB 251023Z AUTO 11003KT 6SM BR BKN002 15/14 A3017 RMK AO2 T01500139
KPKB 251015Z AUTO 09005KT 2SM BR BKN002 15/14 A3017 RMK AO2 T01500139
KPKB 251006Z AUTO 09005KT 1/2SM FG VV002 15/14 A3017 RMK AO2 T01500144
KPKB 250953Z AUTO 08005KT 1/2SM FG OVC001 15/14 A3017 RMK AO2 SLP213 T01500144
KPKB 250948Z AUTO 08005KT 1/2SM FG OVC001 15/14 A3017 RMK AO2
KPKB 250940Z AUTO 10004KT 1SM BR BKN001 15/14 A3018 RMK AO2 T01500139
KPKB 250931Z AUTO 10004KT 2SM BR BKN001 15/14 A3018 RMK AO2 T01500139
KPKB 250927Z AUTO 10004KT 4SM BR SCT001 15/14 A3018 RMK AO2 T01500139
KPKB 250853Z AUTO 00000KT 8SM CLR 15/14 A3018 RMK AO2 SLP215 T01500144 55002
KPKB 250757Z AUTO 11003KT 1 3/4SM BR CLR 14/13 A3017 RMK AO2 T01390133
KPKB 250753Z AUTO 12003KT 6SM BR CLR 14/13 A3017 RMK AO2 SLP214 T01440133
KPKB 250750Z AUTO 00000KT 4SM BR CLR 14/13 A3018 RMK AO2
KPKB 250747Z AUTO 00000KT 1SM BR CLR 14/13 A3018 RMK AO2
KPKB 250736Z AUTO 00000KT 3/4SM BR VV002 14/14 A3017 RMK AO2 T01440139
KPKB 250734Z AUTO 00000KT 1 1/2SM BR FEW002 14/14 A3017 RMK AO2 T01440139
KPKB 250720Z AUTO 00000KT 6SM BR FEW002 14/13 A3017 RMK AO2 T01440133
KPKB 250712Z AUTO 00000KT 2SM BR FEW002 14/13 A3017 RMK AO2 T01440133
KPKB 250707Z AUTO 00000KT 1SM BR CLR 14/13 A3017 RMK AO2 T01440133
KPKB 250653Z AUTO 00000KT 2SM BR CLR 14/13 A3016 RMK AO2 SLP210 T01440133
KPKB 250647Z AUTO 00000KT 1 3/4SM BR CLR 14/14 A3017 RMK AO2
KPKB 250609Z AUTO 00000KT 9SM SCT028 BKN036 16/14 A3018 RMK AO2 T01610144
KPKB 250553Z AUTO 12004KT 8SM BKN029 BKN034 16/14 A3018 RMK AO2 SLP217 T01560144 10217 20139 53001
KPKB 250545Z AUTO 00000KT 10SM BKN029 16/14 A3019 RMK AO2 T01560144
KPKB 250453Z AUTO 00000KT 4SM BR CLR 15/14 A3017 RMK AO2 SLP214 T01500139 402330122
KPKB 250413Z AUTO 00000KT 3SM BR CLR 16/14 A3018 RMK AO2 T01560144
KPKB 250402Z AUTO 00000KT 1 3/4SM BR CLR 16/15 A3019 RMK AO2 T01560150
KPKB 250353Z AUTO 00000KT 5SM BR CLR 16/14 A3018 RMK AO2 SLP218 T01560144
KPKB 250253Z 00000KT 10SM CLR 17/16 A3018 RMK AO2 SLP217 T01670156 53006
KPKB 250153Z 00000KT 10SM CLR 18/16 A3017 RMK AO2 SLP215 T01830161
KPKB 250053Z 09003KT 10SM CLR 20/16 A3016 RMK AO2 SLP208 T02000156
KPKB 242353Z 00000KT 10SM FEW042 OVC050 22/16 A3016 RMK AO2 SLP210 T02170156 10233 20206 53006
KPKB 242253Z 00000KT 10SM OVC050 22/16 A3016 RMK AO2 SLP208 T02220156
KPKB 242153Z 13004KT 10SM FEW030 BKN040 22/15 A3015 RMK AO2 SLP205 T02220150
KPKB 242053Z 15004KT 10SM FEW020 BKN036 BKN050 22/15 A3014 RMK AO2 SLP203 T02220150 56010
KPKB 242000Z 18003KT 10SM FEW020 BKN036 BKN050 22/15 A3015 RMK AO2 T02220150
KPKB 241953Z 00000KT 10SM BKN028 OVC036 23/15 A3015 RMK AO2 SLP205 T02280150
KPKB 241853Z 18003KT 10SM OVC026 21/14 A3016 RMK AO2 SLP210 T02110144
KPKB 241753Z VRB03KT 10SM OVC026 21/15 A3017 RMK AO2 SLP214 T02110150 10217 20144 58004
KPKB 241732Z 00000KT 10SM BKN023 OVC037 21/14 A3018 RMK AO2 T02110144
KPKB 241653Z 00000KT 10SM FEW019 OVC055 20/14 A3018 RMK AO2 SLP218 T02000139
KPKB 241553Z 00000KT 10SM BKN041 18/13 A3019 RMK AO2 SLP219 T01830133
KPKB 241453Z 04004KT 10SM OVC037 17/12 A3018 RMK AO2 SLP219 T01720122 51008
KPKB 241353Z 03003KT 10SM SCT020 OVC043 16/11 A3018 RMK AO2 SLP216 T01610111
KPKB 241253Z 05006KT 10SM OVC018 15/11 A3017 RMK AO2 SLP214 T01500106
KPKB 241153Z 02004KT 10SM OVC017 14/11 A3016 RMK AO2 SLP211 70001 T01440106 10144 20122 53015
KPKB 241053Z 32004KT 10SM OVC018 14/11 A3015 RMK AO2 SLP207 T01390106
KPKB 240953Z AUTO 04004KT 10SM OVC016 14/10 A3012 RMK AO2 SLP196 T01390100